Time;durP1;ratioP1;P1;durP2;ratioP2;P2;SDS_P1;SDS_P2;PMS_P1;PMS_P2;Temp;Humidity;BMP_temperature;BMP_pressure;BME280_temperature;BME280_humidity;BME280_pressure;Samples;Min_cycle;Max_cycle;Signal;HPM_P1;HPM_P2
2022/03/11 00:00:38;;;;;;;13.30;6.67;;;7.70;99.90;;;;;;5026875;28;20223;-68
2022/03/11 00:03:05;;;;;;;12.50;6.20;;;7.70;99.90;;;;;;5030862;28;20224;-72
2022/03/11 00:05:32;;;;;;;13.70;6.73;;;7.70;99.90;;;;;;5027077;28;20227;-70
2022/03/11 00:07:58;;;;;;;13.77;6.83;;;7.70;99.90;;;;;;5029060;28;20195;-68
2022/03/11 00:10:25;;;;;;;13.27;6.97;;;7.70;99.90;;;;;;5031754;28;20866;-72
2022/03/11 00:12:52;;;;;;;12.60;6.43;;;7.60;99.90;;;;;;5030755;28;20199;-70
2022/03/11 00:15:18;;;;;;;11.33;6.13;;;7.60;99.90;;;;;;5026107;28;20216;-68
2022/03/11 00:17:45;;;;;;;13.97;6.87;;;7.50;99.90;;;;;;5030442;28;20191;-69
2022/03/11 00:20:12;;;;;;;13.33;6.60;;;7.40;99.90;;;;;;5024190;28;20677;-70
2022/03/11 00:22:39;;;;;;;15.47;6.90;;;7.40;99.90;;;;;;5026286;28;20207;-69
2022/03/11 00:25:06;;;;;;;14.07;6.17;;;7.30;99.90;;;;;;5030238;28;20211;-69
2022/03/11 00:27:32;;;;;;;11.70;6.63;;;7.20;99.90;;;;;;5014629;28;20686;-69
2022/03/11 00:29:59;;;;;;;12.80;6.60;;;7.20;99.90;;;;;;5030682;28;20207;-70
2022/03/11 00:32:26;;;;;;;15.40;6.97;;;7.20;99.90;;;;;;5017373;28;20200;-70
2022/03/11 00:34:52;;;;;;;16.43;7.07;;;7.20;99.90;;;;;;5030673;28;20208;-70
2022/03/11 00:37:19;;;;;;;14.87;7.00;;;7.10;99.90;;;;;;5027012;28;20206;-69
2022/03/11 00:39:46;;;;;;;14.00;6.50;;;7.20;99.90;;;;;;5025187;28;20319;-70
2022/03/11 00:42:12;;;;;;;14.97;7.03;;;7.10;99.90;;;;;;5024608;28;20200;-71
2022/03/11 00:44:40;;;;;;;16.13;7.07;;;7.20;99.90;;;;;;5019341;28;20203;-69
2022/03/11 00:47:09;;;;;;;12.67;7.40;;;7.10;99.90;;;;;;5023944;28;20222;-70
2022/03/11 00:49:37;;;;;;;16.03;7.30;;;7.20;99.90;;;;;;5030738;28;20508;-69
2022/03/11 00:52:05;;;;;;;15.53;7.20;;;7.10;99.90;;;;;;5027302;28;20600;-69
2022/03/11 00:54:32;;;;;;;13.67;7.20;;;7.10;99.90;;;;;;5023616;28;20208;-73
2022/03/11 00:56:58;;;;;;;13.57;7.50;;;7.10;99.90;;;;;;5026319;28;20224;-69
2022/03/11 00:59:25;;;;;;;18.93;7.70;;;7.00;99.90;;;;;;5020410;28;20196;-72
2022/03/11 01:01:52;;;;;;;14.43;7.40;;;7.00;99.90;;;;;;5023122;28;20204;-70
2022/03/11 01:04:19;;;;;;;16.63;7.40;;;7.00;99.90;;;;;;5028908;28;20199;-69
2022/03/11 01:06:45;;;;;;;12.87;6.70;;;6.90;99.90;;;;;;5029527;28;20216;-69
2022/03/11 01:09:12;;;;;;;14.17;6.90;;;6.70;99.90;;;;;;5014486;28;20597;-67
2022/03/11 01:11:39;;;;;;;17.60;7.47;;;6.60;99.90;;;;;;5017666;28;20225;-67
2022/03/11 01:14:05;;;;;;;12.23;6.53;;;6.70;99.90;;;;;;5025963;28;20669;-67
2022/03/11 01:16:32;;;;;;;16.27;7.23;;;6.70;99.90;;;;;;5023565;28;20216;-66
2022/03/11 01:18:59;;;;;;;14.30;7.20;;;6.70;99.90;;;;;;5028810;28;20619;-67
2022/03/11 01:21:26;;;;;;;16.20;7.67;;;6.70;99.90;;;;;;5020141;28;20215;-67
2022/03/11 01:23:53;;;;;;;15.63;7.17;;;6.70;99.90;;;;;;5028216;28;20603;-67
2022/03/11 01:26:20;;;;;;;15.47;7.10;;;6.70;99.90;;;;;;5029349;28;20217;-67
2022/03/11 01:28:49;;;;;;;16.83;7.40;;;6.70;99.90;;;;;;5030758;28;20238;-67
2022/03/11 01:31:17;;;;;;;13.77;7.53;;;6.70;99.90;;;;;;5015667;28;20632;-67
2022/03/11 01:33:45;;;;;;;16.43;7.53;;;6.70;99.90;;;;;;5022664;28;20203;-67
2022/03/11 01:36:12;;;;;;;16.40;8.10;;;6.70;99.90;;;;;;5030404;28;20208;-67
2022/03/11 01:38:40;;;;;;;14.00;7.53;;;6.60;99.90;;;;;;5028655;28;20301;-67
2022/03/11 01:41:09;;;;;;;12.60;7.80;;;6.70;99.90;;;;;;5023883;28;20221;-67
2022/03/11 01:43:58;;;;;;;14.53;7.27;;;6.70;99.90;;;;;;5029007;28;20193;-67
2022/03/11 01:46:25;;;;;;;14.57;8.10;;;6.70;99.90;;;;;;5010549;28;20213;-67
2022/03/11 01:48:52;;;;;;;16.20;8.17;;;6.60;99.90;;;;;;5019215;28;20237;-67
2022/03/11 01:51:19;;;;;;;13.83;7.40;;;6.60;99.90;;;;;;5029040;28;20200;-67
2022/03/11 01:53:46;;;;;;;15.13;8.00;;;6.50;99.90;;;;;;5010426;28;20206;-67
2022/03/11 01:56:13;;;;;;;17.63;8.13;;;6.60;99.90;;;;;;5018977;28;20705;-67
2022/03/11 01:58:40;;;;;;;16.37;8.43;;;6.50;99.90;;;;;;5026552;28;20193;-67
2022/03/11 02:01:08;;;;;;;14.43;7.40;;;6.50;99.90;;;;;;5027635;28;20212;-67
2022/03/11 02:03:35;;;;;;;15.50;8.03;;;6.40;99.90;;;;;;5026811;28;20564;-67
2022/03/11 02:06:04;;;;;;;16.20;7.93;;;6.40;99.90;;;;;;5027537;28;20219;-67
2022/03/11 02:08:30;;;;;;;14.90;7.80;;;6.30;99.90;;;;;;5027324;28;20196;-70
2022/03/11 02:10:58;;;;;;;15.63;7.77;;;6.30;99.90;;;;;;5020108;28;20214;-69
2022/03/11 02:13:25;;;;;;;16.57;8.57;;;6.20;99.90;;;;;;5028140;28;20199;-69
2022/03/11 02:15:52;;;;;;;17.60;8.23;;;6.20;99.90;;;;;;5027449;28;20219;-70
2022/03/11 02:18:19;;;;;;;15.17;7.73;;;6.10;99.90;;;;;;5024716;28;20199;-74
2022/03/11 02:20:49;;;;;;;15.60;8.23;;;6.10;99.90;;;;;;5027037;28;20236;-69
2022/03/11 02:23:18;;;;;;;17.93;8.23;;;6.10;99.90;;;;;;5029328;28;20681;-72
2022/03/11 02:25:44;;;;;;;18.90;8.40;;;6.00;99.90;;;;;;5026353;28;20225;-75
2022/03/11 02:28:11;;;;;;;17.23;8.77;;;5.90;99.90;;;;;;5039030;28;20189;-71
2022/03/11 02:30:38;;;;;;;18.67;8.67;;;5.90;99.90;;;;;;5025887;28;20210;-70
2022/03/11 02:33:04;;;;;;;22.97;9.17;;;5.90;99.90;;;;;;5020505;28;20198;-70
2022/03/11 02:35:31;;;;;;;18.53;8.83;;;5.90;99.90;;;;;;5022220;28;20231;-69
2022/03/11 02:37:58;;;;;;;18.63;8.50;;;5.90;99.90;;;;;;5019176;28;20218;-70
2022/03/11 02:40:24;;;;;;;22.10;9.17;;;5.80;99.90;;;;;;5023607;28;20711;-67
2022/03/11 02:42:51;;;;;;;16.90;8.83;;;5.80;99.90;;;;;;5012104;28;20195;-67
2022/03/11 02:45:18;;;;;;;19.90;8.97;;;5.80;99.90;;;;;;5025465;28;20259;-67
2022/03/11 02:47:44;;;;;;;19.13;8.70;;;5.80;99.90;;;;;;5022284;28;20686;-67
2022/03/11 02:50:11;;;;;;;17.67;9.13;;;5.80;99.90;;;;;;5028324;28;20210;-67
2022/03/11 02:52:37;;;;;;;18.67;8.53;;;5.70;99.90;;;;;;5026617;28;20201;-67
2022/03/11 02:55:04;;;;;;;17.87;9.30;;;5.80;99.90;;;;;;5017965;28;20216;-67
2022/03/11 02:57:31;;;;;;;23.50;9.27;;;5.80;99.90;;;;;;5023609;28;20191;-67
2022/03/11 02:59:58;;;;;;;19.60;9.17;;;5.80;99.90;;;;;;5017046;28;20223;-67
2022/03/11 03:02:24;;;;;;;17.63;9.23;;;5.90;99.90;;;;;;5013786;28;20576;-67
2022/03/11 03:04:51;;;;;;;19.03;9.17;;;5.80;99.90;;;;;;5025364;28;20241;-67
2022/03/11 03:07:18;;;;;;;18.73;9.60;;;5.80;99.90;;;;;;5020184;28;20201;-67
2022/03/11 03:09:44;;;;;;;15.90;8.90;;;5.70;99.90;;;;;;5026675;28;20199;-67
2022/03/11 03:12:11;;;;;;;20.23;9.60;;;5.60;99.90;;;;;;5022082;28;20200;-67
2022/03/11 03:14:38;;;;;;;19.80;9.97;;;5.60;99.90;;;;;;5026943;28;20203;-67
2022/03/11 03:17:06;;;;;;;18.37;9.33;;;5.50;99.90;;;;;;5028131;28;20244;-67
2022/03/11 03:19:35;;;;;;;19.70;10.37;;;5.50;99.90;;;;;;5018192;28;20203;-67
2022/03/11 03:22:04;;;;;;;20.73;9.47;;;5.50;99.90;;;;;;5020615;28;20221;-67
2022/03/11 03:24:30;;;;;;;17.47;9.50;;;5.50;99.90;;;;;;5011808;28;20212;-67
2022/03/11 03:26:57;;;;;;;23.07;10.17;;;5.40;99.90;;;;;;5007431;28;20220;-67
2022/03/11 03:29:24;;;;;;;19.57;10.00;;;5.30;99.90;;;;;;5024594;28;20191;-67
2022/03/11 03:31:57;;;;;;;19.83;10.00;;;5.30;99.90;;;;;;5024641;28;20203;-67
2022/03/11 03:34:29;;;;;;;19.43;10.13;;;5.30;99.90;;;;;;5024841;28;20287;-67
2022/03/11 03:37:00;;;;;;;20.13;10.03;;;5.20;99.90;;;;;;5026094;28;20647;-67
2022/03/11 03:39:27;;;;;;;22.47;10.50;;;5.20;99.90;;;;;;5016010;28;20611;-67
2022/03/11 03:41:55;;;;;;;22.37;9.80;;;5.10;99.90;;;;;;5024346;28;20211;-67
2022/03/11 03:44:22;;;;;;;22.67;11.13;;;5.10;99.90;;;;;;5035067;28;20198;-67
2022/03/11 03:46:49;;;;;;;21.20;10.93;;;5.00;99.90;;;;;;5020543;28;20234;-67
2022/03/11 03:49:16;;;;;;;23.37;10.97;;;5.00;99.90;;;;;;5025524;28;20286;-67
2022/03/11 03:51:44;;;;;;;23.20;11.97;;;4.90;99.90;;;;;;5027844;28;20199;-67
2022/03/11 03:54:10;;;;;;;24.83;12.10;;;4.80;99.90;;;;;;5020738;28;20629;-67
2022/03/11 03:56:42;;;;;;;22.13;11.63;;;4.80;99.90;;;;;;5027102;28;20222;-67
2022/03/11 03:59:10;;;;;;;21.83;11.30;;;4.80;99.90;;;;;;5021346;28;20196;-67
2022/03/11 04:01:39;;;;;;;23.27;11.23;;;4.80;99.90;;;;;;5025200;28;20242;-67
2022/03/11 04:04:07;;;;;;;22.80;11.33;;;4.80;99.90;;;;;;5017948;28;20257;-67
2022/03/11 04:06:35;;;;;;;25.27;11.57;;;4.80;99.90;;;;;;5027490;28;20219;-67
2022/03/11 04:09:04;;;;;;;24.67;11.87;;;4.80;99.90;;;;;;5023593;28;20682;-67
2022/03/11 04:11:31;;;;;;;23.00;11.03;;;4.80;99.90;;;;;;5025513;28;20214;-67
2022/03/11 04:13:58;;;;;;;23.80;12.57;;;4.70;99.90;;;;;;5031632;28;20199;-67
2022/03/11 04:16:26;;;;;;;25.53;12.47;;;4.70;99.90;;;;;;5025845;28;20224;-67
2022/03/11 04:18:54;;;;;;;23.90;11.97;;;4.70;99.90;;;;;;5014718;28;20191;-67
2022/03/11 04:21:21;;;;;;;24.70;11.97;;;4.70;99.90;;;;;;5025753;28;20716;-67
2022/03/11 04:23:49;;;;;;;25.30;12.07;;;4.50;99.90;;;;;;5042209;28;20662;-67
2022/03/11 04:26:16;;;;;;;25.50;12.17;;;4.50;99.90;;;;;;5027156;28;20717;-67
2022/03/11 04:28:44;;;;;;;23.77;11.90;;;4.50;99.90;;;;;;5028532;28;20667;-67
2022/03/11 04:31:12;;;;;;;24.23;12.40;;;4.50;99.90;;;;;;5025568;28;20200;-67
2022/03/11 04:33:40;;;;;;;24.43;11.87;;;4.50;99.90;;;;;;5016266;28;20489;-67
2022/03/11 04:36:07;;;;;;;24.87;12.37;;;4.50;99.90;;;;;;5012105;28;20238;-67
2022/03/11 04:38:34;;;;;;;26.10;11.93;;;4.40;99.90;;;;;;5028970;28;20203;-67
2022/03/11 04:41:01;;;;;;;22.20;12.00;;;4.40;99.90;;;;;;5025001;28;20498;-67
2022/03/11 04:43:29;;;;;;;25.53;12.37;;;4.30;99.90;;;;;;5022782;28;20196;-67
2022/03/11 04:45:56;;;;;;;22.17;11.67;;;4.20;99.90;;;;;;5020869;28;20235;-70
2022/03/11 04:48:22;;;;;;;27.63;12.70;;;4.20;99.90;;;;;;5029365;28;20184;-69
2022/03/11 04:50:49;;;;;;;26.40;12.80;;;4.20;99.90;;;;;;5030813;28;20215;-72
2022/03/11 04:53:16;;;;;;;26.83;11.97;;;4.10;99.90;;;;;;5025505;28;20199;-69
2022/03/11 04:55:42;;;;;;;28.80;12.80;;;4.10;99.90;;;;;;5022786;28;20218;-70
2022/03/11 04:58:09;;;;;;;25.73;12.00;;;4.10;99.90;;;;;;5028046;28;20199;-68
2022/03/11 05:00:36;;;;;;;27.10;12.17;;;4.20;99.90;;;;;;5014438;28;20222;-68
2022/03/11 05:03:02;;;;;;;22.80;11.13;;;4.00;99.90;;;;;;5027526;28;20234;-67
2022/03/11 05:05:29;;;;;;;26.67;12.73;;;4.00;99.90;;;;;;5030842;28;20207;-67
2022/03/11 05:07:56;;;;;;;25.90;12.17;;;4.00;99.90;;;;;;5017420;28;20192;-68
2022/03/11 05:10:23;;;;;;;23.50;12.00;;;4.00;99.90;;;;;;5027328;28;20204;-68
2022/03/11 05:12:49;;;;;;;24.17;11.50;;;3.90;99.90;;;;;;5016696;28;20217;-68
2022/03/11 05:15:16;;;;;;;23.80;11.57;;;3.90;99.90;;;;;;5019335;28;20234;-68
2022/03/11 05:17:42;;;;;;;25.37;12.63;;;3.80;99.90;;;;;;5020319;28;20212;-67
2022/03/11 05:20:10;;;;;;;22.50;11.17;;;3.70;99.90;;;;;;5023823;28;20207;-68
2022/03/11 05:22:36;;;;;;;26.87;12.43;;;3.70;99.90;;;;;;5017282;28;20583;-68
2022/03/11 05:25:04;;;;;;;25.30;12.13;;;3.80;99.90;;;;;;5027952;28;20218;-68
2022/03/11 05:27:30;;;;;;;25.57;12.20;;;3.70;99.90;;;;;;5025365;28;20653;-68
2022/03/11 05:29:57;;;;;;;33.53;12.80;;;3.80;99.90;;;;;;5029546;28;20686;-68
2022/03/11 05:32:24;;;;;;;28.23;12.37;;;3.80;99.90;;;;;;5021881;28;20196;-67
2022/03/11 05:34:50;;;;;;;24.33;11.37;;;3.80;99.90;;;;;;5023105;28;20203;-68
2022/03/11 05:37:17;;;;;;;26.87;12.90;;;3.80;99.90;;;;;;5027397;28;20198;-68
2022/03/11 05:39:44;;;;;;;30.17;12.70;;;3.70;99.90;;;;;;5029871;28;20201;-67
2022/03/11 05:42:10;;;;;;;28.33;11.90;;;3.80;99.90;;;;;;5027368;28;20219;-67
2022/03/11 05:44:37;;;;;;;27.63;12.43;;;3.70;99.90;;;;;;5022429;28;20198;-68
2022/03/11 05:47:04;;;;;;;28.47;11.63;;;3.70;99.90;;;;;;5010247;28;20228;-68
2022/03/11 05:49:31;;;;;;;28.03;11.87;;;3.60;99.90;;;;;;5014875;28;20203;-70
2022/03/11 05:51:57;;;;;;;24.83;11.83;;;3.70;99.90;;;;;;5023080;28;20229;-70
2022/03/11 05:54:24;;;;;;;25.93;11.77;;;3.70;99.90;;;;;;5029108;28;20198;-71
2022/03/11 05:56:54;;;;;;;22.77;10.77;;;3.60;99.90;;;;;;5013722;28;20226;-71
2022/03/11 05:59:22;;;;;;;23.10;10.97;;;3.70;99.90;;;;;;5015297;28;20265;-68
2022/03/11 06:01:48;;;;;;;24.73;11.73;;;3.70;99.90;;;;;;5024190;28;20215;-66
2022/03/11 06:04:15;;;;;;;21.87;11.23;;;3.60;99.90;;;;;;5022529;28;20201;-66
2022/03/11 06:06:42;;;;;;;26.13;11.37;;;3.50;99.90;;;;;;5022244;28;20595;-67
2022/03/11 06:09:09;;;;;;;27.97;10.97;;;3.60;99.90;;;;;;5020377;28;20198;-66
2022/03/11 06:11:36;;;;;;;32.87;11.23;;;3.60;99.90;;;;;;5016838;28;20201;-66
2022/03/11 06:14:02;;;;;;;24.47;11.40;;;3.60;99.90;;;;;;5019952;28;20219;-67
2022/03/11 06:16:29;;;;;;;25.67;11.07;;;3.70;99.90;;;;;;5020480;28;20220;-66
2022/03/11 06:18:56;;;;;;;25.27;11.03;;;3.70;99.90;;;;;;5019172;28;20207;-66
2022/03/11 06:21:23;;;;;;;25.33;10.80;;;3.60;99.90;;;;;;5016561;28;20219;-66
2022/03/11 06:23:49;;;;;;;29.07;11.27;;;3.60;99.90;;;;;;5027590;28;20646;-65
2022/03/11 06:26:16;;;;;;;23.07;10.93;;;3.70;99.90;;;;;;5017713;28;20589;-65
2022/03/11 06:28:43;;;;;;;22.60;10.30;;;3.70;99.90;;;;;;5028724;28;20586;-65
2022/03/11 06:31:11;;;;;;;28.33;10.53;;;3.70;99.90;;;;;;5029031;28;20210;-65
2022/03/11 06:33:38;;;;;;;22.30;10.47;;;3.80;99.90;;;;;;5024136;28;20194;-65
2022/03/11 06:36:05;;;;;;;24.93;10.70;;;3.70;99.90;;;;;;5020342;28;20211;-65
2022/03/11 06:38:32;;;;;;;23.77;10.60;;;3.80;99.90;;;;;;5030138;28;20190;-66
2022/03/11 06:40:59;;;;;;;24.43;11.23;;;3.80;99.90;;;;;;5037330;28;20222;-65
2022/03/11 06:43:26;;;;;;;21.57;9.63;;;3.90;99.90;;;;;;5052176;28;20206;-66
2022/03/11 06:45:54;;;;;;;22.17;10.90;;;4.00;99.90;;;;;;5039097;28;20601;-66
2022/03/11 06:48:21;;;;;;;22.57;10.33;;;4.10;99.90;;;;;;5040218;28;20648;-65
2022/03/11 06:50:48;;;;;;;25.63;10.47;;;4.10;99.90;;;;;;5046401;28;20202;-65
2022/03/11 06:53:18;;;;;;;19.77;10.83;;;4.10;99.90;;;;;;5038070;28;20218;-65
2022/03/11 06:55:44;;;;;;;23.03;10.13;;;4.10;99.90;;;;;;5036574;28;20228;-66
2022/03/11 06:58:11;;;;;;;22.57;10.80;;;4.10;99.90;;;;;;5018772;28;20203;-66
2022/03/11 07:00:38;;;;;;;26.90;10.60;;;4.20;99.90;;;;;;5029145;28;20198;-66
2022/03/11 07:03:04;;;;;;;23.90;10.13;;;4.30;99.90;;;;;;5042599;28;20218;-67
2022/03/11 07:05:31;;;;;;;21.00;10.97;;;4.40;99.90;;;;;;5036269;28;20213;-66
2022/03/11 07:08:18;;;;;;;24.80;10.20;;;4.40;99.90;;;;;;5040265;28;20657;-66
2022/03/11 07:10:45;;;;;;;23.67;10.30;;;4.40;99.90;;;;;;5034660;28;20743;-68
2022/03/11 07:13:12;;;;;;;19.67;9.57;;;4.50;99.90;;;;;;5034051;28;20202;-68
2022/03/11 07:15:39;;;;;;;21.33;10.10;;;4.50;99.90;;;;;;5030067;28;20237;-68
2022/03/11 07:18:06;;;;;;;19.73;10.10;;;4.50;99.90;;;;;;5038180;28;20222;-68
2022/03/11 07:20:32;;;;;;;22.33;10.00;;;4.60;99.90;;;;;;5040733;28;20206;-68
2022/03/11 07:23:19;;;;;;;21.23;9.17;;;4.60;99.90;;;;;;5033898;28;20690;-68
2022/03/11 07:25:46;;;;;;;19.00;9.50;;;4.70;99.90;;;;;;5044107;28;20965;-68
2022/03/11 07:28:12;;;;;;;22.30;10.00;;;4.70;99.90;;;;;;5030581;28;20566;-66
2022/03/11 07:30:39;;;;;;;18.77;9.17;;;4.80;99.90;;;;;;5028313;28;20199;-67
2022/03/11 07:33:07;;;;;;;21.03;9.63;;;4.80;99.90;;;;;;5030886;28;20199;-67
2022/03/11 07:35:34;;;;;;;21.43;9.77;;;5.00;99.90;;;;;;5044303;28;20613;-67
2022/03/11 07:38:01;;;;;;;20.03;8.40;;;5.00;99.90;;;;;;5034207;28;20285;-67
2022/03/11 07:40:27;;;;;;;19.53;8.93;;;5.10;99.90;;;;;;5048073;28;20662;-67
2022/03/11 07:42:54;;;;;;;22.83;8.83;;;5.20;99.90;;;;;;5037097;28;21038;-67
2022/03/11 07:45:21;;;;;;;14.97;8.27;;;5.20;99.90;;;;;;5040169;28;20215;-66
2022/03/11 07:47:47;;;;;;;17.70;8.60;;;5.30;99.90;;;;;;5040107;28;20201;-66
2022/03/11 07:50:14;;;;;;;20.80;8.97;;;5.40;99.90;;;;;;5039126;28;20198;-65
2022/03/11 07:52:42;;;;;;;18.07;8.47;;;5.60;99.90;;;;;;5046431;28;20210;-64
2022/03/11 07:55:10;;;;;;;19.07;8.97;;;5.60;99.90;;;;;;5038580;28;20211;-65
2022/03/11 07:57:37;;;;;;;19.20;9.07;;;5.60;99.90;;;;;;5043185;28;20199;-65
2022/03/11 08:00:05;;;;;;;23.30;8.37;;;5.60;99.90;;;;;;5037946;28;20202;-66
2022/03/11 08:02:32;;;;;;;19.27;8.60;;;5.80;99.90;;;;;;5035854;28;20221;-65
2022/03/11 08:04:59;;;;;;;17.90;8.27;;;5.90;99.90;;;;;;5041408;28;20274;-65
2022/03/11 08:07:27;;;;;;;14.97;8.20;;;5.90;99.90;;;;;;5038019;28;20216;-66
2022/03/11 08:09:53;;;;;;;18.10;8.53;;;6.00;99.90;;;;;;5035751;28;20207;-66
2022/03/11 08:12:20;;;;;;;18.83;8.80;;;6.10;99.90;;;;;;5042103;28;20201;-66
2022/03/11 08:14:47;;;;;;;20.83;8.30;;;6.00;99.90;;;;;;5037143;28;20215;-66
2022/03/11 08:17:15;;;;;;;13.83;7.83;;;6.00;99.90;;;;;;5034034;28;20278;-66
2022/03/11 08:19:42;;;;;;;17.20;8.67;;;6.10;99.90;;;;;;5039640;28;21639;-66
2022/03/11 08:22:11;;;;;;;20.93;8.23;;;6.20;99.90;;;;;;5045383;28;20264;-68
2022/03/11 08:24:39;;;;;;;20.07;8.80;;;6.30;99.90;;;;;;5040988;28;20202;-65
2022/03/11 08:27:05;;;;;;;19.10;8.73;;;6.30;99.90;;;;;;5039297;28;20684;-66
2022/03/11 08:29:34;;;;;;;14.40;8.10;;;6.40;99.90;;;;;;5033799;28;20200;-66
2022/03/11 08:32:02;;;;;;;17.63;8.10;;;6.40;99.90;;;;;;5041101;28;20231;-66
2022/03/11 08:34:29;;;;;;;13.00;7.90;;;6.50;99.90;;;;;;5043821;28;20213;-66
2022/03/11 08:37:16;;;;;;;15.87;8.40;;;6.60;99.90;;;;;;5045394;28;20236;-67
2022/03/11 08:39:43;;;;;;;18.07;8.53;;;6.70;99.90;;;;;;5040053;28;20200;-66
2022/03/11 08:42:09;;;;;;;17.47;8.83;;;6.80;99.90;;;;;;5047513;28;20226;-67
2022/03/11 08:44:36;;;;;;;16.87;8.60;;;6.80;99.90;;;;;;5046160;28;20665;-67
2022/03/11 08:47:03;;;;;;;15.67;8.67;;;6.70;99.90;;;;;;5045434;28;20263;-67
2022/03/11 08:49:30;;;;;;;18.20;8.37;;;6.70;99.90;;;;;;5045042;28;20204;-66
2022/03/11 08:51:57;;;;;;;17.10;7.93;;;6.70;99.90;;;;;;5048896;28;20413;-66
2022/03/11 08:54:23;;;;;;;16.23;7.90;;;6.60;99.90;;;;;;5040529;28;20665;-66
2022/03/11 08:56:52;;;;;;;15.03;7.67;;;6.70;99.90;;;;;;5038650;28;20584;-66
2022/03/11 08:59:19;;;;;;;19.73;8.17;;;6.80;99.90;;;;;;5035843;28;20207;-66
2022/03/11 09:01:46;;;;;;;13.60;7.20;;;6.90;99.90;;;;;;5035777;28;20558;-66
2022/03/11 09:04:13;;;;;;;25.20;10.40;;;7.10;99.90;;;;;;5043500;28;20281;-66
2022/03/11 09:06:39;;;;;;;21.23;9.70;;;7.20;99.90;;;;;;5035727;28;20214;-66
2022/03/11 09:09:08;;;;;;;18.13;8.20;;;7.30;99.90;;;;;;5038362;28;20197;-66
2022/03/11 09:11:35;;;;;;;19.47;9.43;;;7.40;99.90;;;;;;5039186;28;20204;-66
2022/03/11 09:14:02;;;;;;;18.27;9.10;;;7.40;99.90;;;;;;5040726;28;20573;-67
2022/03/11 09:16:28;;;;;;;13.60;7.90;;;7.50;99.90;;;;;;5039378;28;20722;-66
2022/03/11 09:18:55;;;;;;;13.97;7.73;;;7.60;99.90;;;;;;5040299;28;20198;-65
2022/03/11 09:21:22;;;;;;;14.27;7.70;;;7.60;99.90;;;;;;5036733;28;20202;-66
2022/03/11 09:23:49;;;;;;;16.47;8.23;;;7.60;99.90;;;;;;5030593;28;20228;-65
2022/03/11 09:26:15;;;;;;;18.77;8.63;;;7.70;99.90;;;;;;5043672;28;20217;-66
2022/03/11 09:28:42;;;;;;;16.87;8.20;;;7.80;99.90;;;;;;5041665;28;20217;-67
2022/03/11 09:31:09;;;;;;;15.37;7.90;;;7.90;99.90;;;;;;5037659;28;20878;-68
2022/03/11 09:33:37;;;;;;;22.63;8.57;;;8.00;99.90;;;;;;5039544;28;20238;-67
2022/03/11 09:36:06;;;;;;;14.73;8.13;;;8.20;99.90;;;;;;5038102;28;20302;-68
2022/03/11 09:38:33;;;;;;;17.37;8.07;;;8.30;99.90;;;;;;5043417;28;20203;-64
2022/03/11 09:41:02;;;;;;;16.17;8.90;;;8.40;99.90;;;;;;5039298;28;20203;-65
2022/03/11 09:43:30;;;;;;;17.07;7.83;;;8.30;99.90;;;;;;5035133;28;20215;-64
2022/03/11 09:45:58;;;;;;;13.37;7.70;;;8.40;99.90;;;;;;5044253;28;20215;-65
2022/03/11 09:48:25;;;;;;;14.60;8.37;;;8.30;99.90;;;;;;5036335;28;20290;-65
2022/03/11 09:50:52;;;;;;;15.03;8.13;;;8.20;99.90;;;;;;5041321;28;20208;-65
2022/03/11 09:53:20;;;;;;;17.03;8.13;;;8.30;99.90;;;;;;5047338;28;20262;-66
2022/03/11 09:55:46;;;;;;;16.80;8.07;;;8.40;99.90;;;;;;5042030;28;20238;-65
2022/03/11 09:58:13;;;;;;;14.97;8.40;;;8.30;99.90;;;;;;5045205;28;20195;-65
2022/03/11 10:00:40;;;;;;;16.77;8.00;;;8.20;99.90;;;;;;5043968;28;20205;-65
2022/03/11 10:03:07;;;;;;;23.43;8.37;;;8.10;99.90;;;;;;5047106;28;20222;-65
2022/03/11 10:05:45;;;;;;;15.23;7.93;;;8.00;99.90;;;;;;5044809;28;20760;-65
2022/03/11 10:08:12;;;;;;;19.90;8.27;;;8.00;99.90;;;;;;5037826;28;20199;-65
2022/03/11 10:10:39;;;;;;;21.90;8.17;;;8.10;99.90;;;;;;5038274;28;20198;-65
2022/03/11 10:13:09;;;;;;;19.40;8.13;;;8.40;99.90;;;;;;5042615;28;20662;-66
2022/03/11 10:15:38;;;;;;;16.27;8.00;;;8.50;99.90;;;;;;5038343;28;20236;-65
2022/03/11 10:18:09;;;;;;;14.63;8.23;;;8.60;99.90;;;;;;5036456;28;20773;-65
2022/03/11 10:20:36;;;;;;;17.97;8.17;;;8.70;99.90;;;;;;5041367;28;20215;-64
2022/03/11 10:23:08;;;;;;;18.47;8.27;;;8.70;99.90;;;;;;5039858;28;20210;-66
2022/03/11 10:25:35;;;;;;;18.77;8.47;;;8.80;99.90;;;;;;5046563;28;20483;-66
2022/03/11 10:28:12;;;;;;;16.07;8.10;;;8.80;99.90;;;;;;5046039;28;20202;-69
2022/03/11 10:30:41;;;;;;;18.07;8.30;;;9.00;99.80;;;;;;5042028;28;20246;-66
2022/03/11 10:33:11;;;;;;;13.37;7.70;;;9.00;99.80;;;;;;5035982;28;20223;-66
2022/03/11 10:35:40;;;;;;;16.33;8.37;;;9.10;99.80;;;;;;5042544;28;20219;-66
2022/03/11 10:38:09;;;;;;;17.03;8.80;;;9.30;99.80;;;;;;5045327;28;20192;-66
2022/03/11 10:40:49;;;;;;;15.67;8.67;;;9.50;99.10;;;;;;5037714;28;20206;-66
2022/03/11 10:43:22;;;;;;;18.23;8.77;;;9.30;99.40;;;;;;5039410;28;20312;-66
2022/03/11 10:45:50;;;;;;;17.43;8.67;;;9.40;99.70;;;;;;5045566;28;20491;-66
2022/03/11 10:48:18;;;;;;;15.17;8.50;;;9.70;99.30;;;;;;5046263;28;20192;-66
2022/03/11 10:50:45;;;;;;;20.00;8.73;;;9.80;98.80;;;;;;5039077;28;20221;-66
2022/03/11 10:53:12;;;;;;;14.67;8.37;;;9.90;99.10;;;;;;5041906;28;20205;-66
2022/03/11 10:55:41;;;;;;;15.57;8.57;;;10.00;98.90;;;;;;5046227;28;20220;-66
2022/03/11 10:58:09;;;;;;;21.83;8.53;;;9.90;98.80;;;;;;5042566;28;20205;-66
2022/03/11 11:00:39;;;;;;;17.43;8.43;;;10.00;99.10;;;;;;5048833;28;20220;-66
2022/03/11 11:03:08;;;;;;;22.70;9.03;;;10.10;98.80;;;;;;5041640;28;20310;-65
2022/03/11 11:05:36;;;;;;;17.47;8.43;;;10.10;98.90;;;;;;5037190;28;20332;-65
2022/03/11 11:08:05;;;;;;;15.10;7.83;;;10.10;98.90;;;;;;5032171;28;20609;-65
2022/03/11 11:10:37;;;;;;;18.47;8.63;;;10.20;98.90;;;;;;5044376;28;20206;-65
2022/03/11 11:13:04;;;;;;;15.27;8.33;;;10.40;98.80;;;;;;5034524;28;20205;-65
2022/03/11 11:15:31;;;;;;;15.07;8.87;;;10.60;98.20;;;;;;5031124;28;20238;-67
2022/03/11 11:18:00;;;;;;;14.43;8.47;;;10.70;98.10;;;;;;5028090;28;20212;-66
2022/03/11 11:20:46;;;;;;;14.60;8.57;;;10.80;98.10;;;;;;5039120;28;20601;-67
2022/03/11 11:23:14;;;;;;;17.90;8.90;;;10.70;97.70;;;;;;5035900;28;20226;-67
2022/03/11 11:25:43;;;;;;;21.97;9.47;;;10.70;98.50;;;;;;5033761;28;20701;-67
2022/03/11 11:28:18;;;;;;;17.17;8.50;;;10.70;98.30;;;;;;5032148;28;20195;-68
2022/03/11 11:30:46;;;;;;;16.80;8.63;;;10.60;97.90;;;;;;5034936;28;20199;-69
2022/03/11 11:33:14;;;;;;;16.63;8.67;;;10.50;98.50;;;;;;5046465;28;20677;-74
2022/03/11 11:35:43;;;;;;;18.97;9.07;;;10.70;98.10;;;;;;5036758;28;20740;-73
2022/03/11 11:38:32;;;;;;;15.27;9.10;;;10.60;98.10;;;;;;5034901;28;20201;-76
2022/03/11 11:41:00;;;;;;;18.53;8.83;;;10.70;98.60;;;;;;5035279;28;20195;-71
2022/03/11 11:43:31;;;;;;;14.33;8.37;;;10.80;98.20;;;;;;5044743;28;20216;-66
2022/03/11 11:46:03;;;;;;;15.33;8.53;;;10.80;98.20;;;;;;5042089;28;20256;-66
2022/03/11 11:48:33;;;;;;;20.43;9.47;;;11.00;98.70;;;;;;5042958;28;20934;-67
2022/03/11 11:51:05;;;;;;;19.13;9.60;;;11.10;97.90;;;;;;5044604;28;20558;-67
2022/03/11 11:53:32;;;;;;;20.17;8.97;;;11.10;97.90;;;;;;5036531;28;20207;-65
2022/03/11 11:56:00;;;;;;;20.97;9.43;;;11.00;97.70;;;;;;5037066;28;20226;-66
2022/03/11 11:58:30;;;;;;;17.67;9.93;;;11.00;98.00;;;;;;5038053;28;20211;-65
2022/03/11 12:00:57;;;;;;;20.27;8.77;;;11.00;97.80;;;;;;5037743;28;20192;-66
2022/03/11 12:03:47;;;;;;;16.03;9.13;;;11.00;97.90;;;;;;5032666;28;20465;-65
2022/03/11 12:06:55;;;;;;;16.40;8.30;;;11.00;98.30;;;;;;5040527;28;20313;-65
2022/03/11 12:09:45;;;;;;;17.73;8.80;;;11.20;98.30;;;;;;5029725;28;20654;-64
2022/03/11 12:12:21;;;;;;;15.70;8.27;;;11.20;97.80;;;;;;5035155;28;20845;-65
2022/03/11 12:14:56;;;;;;;16.40;8.50;;;11.20;97.80;;;;;;5045424;28;20515;-65
2022/03/11 12:17:39;;;;;;;19.20;9.03;;;11.20;97.90;;;;;;5031805;28;20211;-65
2022/03/11 12:20:24;;;;;;;15.13;8.70;;;11.20;97.70;;;;;;5039139;28;20290;-65
2022/03/11 12:23:09;;;;;;;16.17;8.77;;;11.30;97.40;;;;;;5033100;28;20223;-64
2022/03/11 12:25:38;;;;;;;15.40;8.87;;;11.40;97.60;;;;;;5041728;28;20563;-64
2022/03/11 12:28:12;;;;;;;14.57;8.27;;;11.60;97.70;;;;;;5040801;28;20204;-64
2022/03/11 12:31:00;;;;;;;15.77;8.53;;;11.70;97.20;;;;;;5038085;28;20203;-64
2022/03/11 12:33:49;;;;;;;16.03;8.47;;;11.80;97.10;;;;;;5042137;28;20205;-64
2022/03/11 12:36:21;;;;;;;15.07;8.17;;;11.80;97.00;;;;;;5057031;28;20242;-64
2022/03/11 12:38:49;;;;;;;14.57;7.87;;;11.80;97.10;;;;;;5035833;28;20195;-64
2022/03/11 12:41:28;;;;;;;14.57;8.70;;;11.80;96.80;;;;;;5041067;28;20191;-68
2022/03/11 12:43:58;;;;;;;15.97;8.43;;;11.90;97.10;;;;;;5037947;28;20717;-65
2022/03/11 12:46:25;;;;;;;14.13;8.10;;;11.90;96.80;;;;;;5042060;28;20220;-65
2022/03/11 12:48:52;;;;;;;15.73;8.23;;;11.90;96.80;;;;;;5039449;28;20253;-64